Check out our new BloomSky Weather System.

Active alerts


No alerts


Thunder radar  blitzortung!


Rain radar more information rain snow radar


Visit our other weather sites:

Template documentation
and downloads

And another site



Weather Underground History page Text

Daily Summary for May 3, 2017 Units:  Metric    English   Both
« Previous Day
Next Day »
Daily Weekly Monthly Yearly Custom
  High: Low: Average:
Temperature: -17.8 °C 17.8 °C 25.4 °C
Dew Point: -17.8 °C 12.7 °C 22.4 °C
Humidity: Humidity % 66 % 84 %
Wind Speed: 0 km/h 0 km/h 8.4 km/h
Wind Gust: 0 km/h - -
Wind:- - South
Pressure: 0 hPa 1003.9 hPa -
Precipitation: 7.62 mm    
Historical Graphs
 
 
Tabular Data for May 3, 2017
Time Temperature Dew Point Pressure Wind Wind Speed Wind Gust Humidity Rainfall Rate (Hourly)
-17.8 °C -17.8 °C 0 hPa Calm     Humidity % 0 mm
00:00 23.1 °C 20.2 °C 1012.4 hPa East 12.9 km/h 17.7 km/h 84 % 0 mm
00:05 23.1 °C 20.2 °C 1012.4 hPa SE 3.2 km/h 16.1 km/h 84 % 0 mm
00:10 23.1 °C 20.2 °C 1012.1 hPa East 3.2 km/h 16.1 km/h 84 % 0 mm
00:15 22.9 °C 20.1 °C 1012.1 hPa ESE 3.2 km/h 16.1 km/h 84 % 0 mm
00:20 22.9 °C 20.2 °C 1011.7 hPa SE 3.2 km/h 11.3 km/h 85 % 0 mm
00:25 22.9 °C 20.2 °C 1011.7 hPa SE 6.4 km/h 9.7 km/h 85 % 0 mm
00:30 22.8 °C 20.1 °C 1012.1 hPa SE 4.8 km/h 9.7 km/h 85 % 0 mm
00:35 22.8 °C 20.1 °C 1011.7 hPa SE 3.2 km/h 9.7 km/h 85 % 0 mm
00:40 22.8 °C 20.1 °C 1012.1 hPa ESE 1.6 km/h 9.7 km/h 85 % 0 mm
00:45 22.8 °C 20.3 °C 1011.7 hPa SE 3.2 km/h 9.7 km/h 86 % 0 mm
00:50 22.9 °C 20.4 °C 1011.7 hPa Calm   9.7 km/h 86 % 0 mm
00:55 22.9 °C 20.4 °C 1011.7 hPa East 6.4 km/h 8 km/h 86 % 0 mm
01:00 22.9 °C 20.4 °C 1011.7 hPa East 4.8 km/h 6.4 km/h 86 % 0 mm
01:05 23 °C 20.5 °C 1011.7 hPa ESE 4.8 km/h 6.4 km/h 86 % 0 mm
01:10 23.1 °C 20.6 °C 1011.7 hPa East 9.7 km/h 12.9 km/h 86 % 0 mm
01:15 23.2 °C 20.7 °C 1011.7 hPa East 6.4 km/h 12.9 km/h 86 % 0 mm
01:20 23.3 °C 20.8 °C 1011.4 hPa ESE 8 km/h 12.9 km/h 86 % 0 mm
01:25 23.3 °C 20.8 °C 1011.4 hPa East 6.4 km/h 12.9 km/h 86 % 0 mm
01:30 23.4 °C 20.7 °C 1011.4 hPa ENE 3.2 km/h 11.3 km/h 85 % 0 mm
01:35 23.4 °C 20.7 °C 1011.4 hPa ESE 8 km/h 12.9 km/h 85 % 0 mm
01:40 23.5 °C 20.8 °C 1011.4 hPa ESE 4.8 km/h 12.9 km/h 85 % 0 mm
01:46 23.5 °C 20.8 °C 1011.4 hPa SE 3.2 km/h 12.9 km/h 85 % 0 mm
01:51 23.6 °C 21.1 °C 1011.4 hPa East 9.7 km/h 9.7 km/h 86 % 0 mm
01:56 23.6 °C 21.1 °C 1011.1 hPa ESE 4.8 km/h 9.7 km/h 86 % 0 mm
01:59 23.7 °C 21.2 °C 1011.1 hPa ESE 6.4 km/h 9.7 km/h 86 % 0 mm
02:01 23.7 °C 21.2 °C 1011.1 hPa ESE 8 km/h 9.7 km/h 86 % 0 mm
02:06 23.7 °C 21.2 °C 1011.1 hPa ESE 11.3 km/h 11.3 km/h 86 % 0 mm
02:11 23.8 °C 21.3 °C 1011.1 hPa SSE 3.2 km/h 14.5 km/h 86 % 0 mm
02:12 23.8 °C 21.3 °C 1011.1 hPa SE 3.2 km/h 14.5 km/h 86 % 0 mm
02:17 23.8 °C 21.3 °C 1011.1 hPa SE 3.2 km/h 14.5 km/h 86 % 0 mm
02:22 23.9 °C 21.4 °C 1011.1 hPa SSE 4.8 km/h 16.1 km/h 86 % 0 mm
02:27 23.9 °C 21.4 °C 1011.1 hPa ESE 9.7 km/h 16.1 km/h 86 % 0 mm
02:32 24 °C 21.5 °C 1011.1 hPa SSE 6.4 km/h 16.1 km/h 86 % 0 mm
02:37 24.1 °C 21.6 °C 1010.7 hPa SE 8 km/h 17.7 km/h 86 % 0 mm
02:42 24.1 °C 21.8 °C 1010.7 hPa ESE 6.4 km/h 17.7 km/h 87 % 0 mm
02:47 24.1 °C 21.8 °C 1010.7 hPa ESE 9.7 km/h 20.9 km/h 87 % 0 mm
02:52 24.1 °C 21.8 °C 1010.7 hPa SE 9.7 km/h 20.9 km/h 87 % 0 mm
02:57 24.1 °C 21.8 °C 1010.4 hPa SE 4.8 km/h 20.9 km/h 87 % 0 mm
03:02 24.1 °C 22 °C 1010.4 hPa SE 9.7 km/h 19.3 km/h 88 % 0 mm
03:07 24.1 °C 22 °C 1010.4 hPa SE 4.8 km/h 14.5 km/h 88 % 0 mm
03:12 24.1 °C 22 °C 1010.4 hPa SSE 8 km/h 14.5 km/h 88 % 0 mm
03:17 24.1 °C 22 °C 1010.4 hPa SE 6.4 km/h 17.7 km/h 88 % 0 mm
03:22 24.1 °C 22 °C 1010 hPa East 4.8 km/h 17.7 km/h 88 % 0 mm
03:27 24.1 °C 22 °C 1010 hPa ESE 3.2 km/h 17.7 km/h 88 % 0 mm
03:32 24.1 °C 22 °C 1010 hPa ESE 4.8 km/h 11.3 km/h 88 % 0 mm
03:37 24.1 °C 22.2 °C 1010 hPa ESE 4.8 km/h 11.3 km/h 89 % 0 mm
03:42 24.1 °C 22.2 °C 1010 hPa East 1.6 km/h 12.9 km/h 89 % 0 mm
03:47 24.1 °C 22.2 °C 1009.7 hPa SE 1.6 km/h 12.9 km/h 89 % 0 mm
03:52 24 °C 22.3 °C 1009.7 hPa SE 1.6 km/h 12.9 km/h 90 % 0 mm
03:57 24 °C 22.3 °C 1009.7 hPa SE 4.8 km/h 9.7 km/h 90 % 0 mm
04:02 23.9 °C 22.2 °C 1009.7 hPa ESE 6.4 km/h 11.3 km/h 90 % 0 mm
04:07 23.9 °C 22.2 °C 1009.7 hPa SE 3.2 km/h 11.3 km/h 90 % 0 mm
04:12 24 °C 22.4 °C 1009.7 hPa East 3.2 km/h 11.3 km/h 91 % 0 mm
04:17 24 °C 22.4 °C 1009.7 hPa SE 1.6 km/h 9.7 km/h 91 % 0 mm
04:22 24 °C 22.4 °C 1009.7 hPa ESE 1.6 km/h 9.7 km/h 91 % 0 mm
04:27 24 °C 22.4 °C 1009.7 hPa SE 4.8 km/h 9.7 km/h 91 % 0 mm
04:32 23.9 °C 22.5 °C 1009.7 hPa SE 1.6 km/h 9.7 km/h 92 % 0 mm
04:37 23.9 °C 22.5 °C 1009.7 hPa ESE 1.6 km/h 9.7 km/h 92 % 0 mm
04:42 23.9 °C 22.7 °C 1009.7 hPa SE 4.8 km/h 9.7 km/h 93 % 0 mm
04:47 23.8 °C 22.6 °C 1009.4 hPa ESE 1.6 km/h 9.7 km/h 93 % 0 mm
04:52 23.8 °C 22.6 °C 1009.4 hPa SE 1.6 km/h 11.3 km/h 93 % 0 mm
04:57 23.8 °C 22.8 °C 1009.4 hPa ESE 1.6 km/h 11.3 km/h 94 % 0 mm
05:02 23.8 °C 22.8 °C 1009.4 hPa ESE 9.7 km/h 11.3 km/h 94 % 0 mm
05:07 23.8 °C 22.8 °C 1009.4 hPa SSW 1.6 km/h 9.7 km/h 94 % 0 mm
05:12 23.7 °C 22.7 °C 1009.4 hPa Calm   9.7 km/h 94 % 0 mm
05:17 23.7 °C 22.7 °C 1009.4 hPa SE 1.6 km/h 9.7 km/h 94 % 0.25 mm
05:22 23.7 °C 22.9 °C 1009.4 hPa ESE 1.6 km/h 6.4 km/h 95 % 0.25 mm
05:23 23.7 °C 22.9 °C 1009 hPa Calm   6.4 km/h 95 % 0.25 mm
05:28 23.7 °C 22.9 °C 1009 hPa SE 3.2 km/h 6.4 km/h 95 % 0.51 mm
05:33 23.7 °C 22.9 °C 1009.4 hPa SE 4.8 km/h 9.7 km/h 95 % 0.76 mm
05:38 23.7 °C 22.9 °C 1009.4 hPa Calm   9.7 km/h 95 % 0.76 mm
05:43 23.7 °C 23 °C 1009.4 hPa Calm   9.7 km/h 96 % 1.27 mm
05:48 23.7 °C 23 °C 1009.4 hPa ESE 4.8 km/h 8 km/h 96 % 1.27 mm
05:53 23.7 °C 23 °C 1009 hPa ESE 3.2 km/h 8 km/h 96 % 1.27 mm
05:58 23.8 °C 23.1 °C 1009 hPa SE 3.2 km/h 14.5 km/h 96 % 1.27 mm
06:03 23.8 °C 23.1 °C 1009 hPa ESE 3.2 km/h 14.5 km/h 96 % 1.27 mm
06:08 23.8 °C 23.1 °C 1009 hPa SE 3.2 km/h 14.5 km/h 96 % 1.27 mm
06:13 23.8 °C 23.1 °C 1009.4 hPa SE 1.6 km/h 9.7 km/h 96 % 1.27 mm
06:18 23.8 °C 23.1 °C 1009.4 hPa SSE 1.6 km/h 9.7 km/h 96 % 1.02 mm
06:23 23.9 °C 23.4 °C 1009.4 hPa ESE 3.2 km/h 9.7 km/h 97 % 1.02 mm
06:28 23.9 °C 23.4 °C 1009.4 hPa Calm   9.7 km/h 97 % 0.76 mm
06:33 23.9 °C 23.4 °C 1009.4 hPa SE 3.2 km/h 9.7 km/h 97 % 0.51 mm
06:38 24 °C 23.5 °C 1009.4 hPa SSE 4.8 km/h 8 km/h 97 % 0.25 mm
06:43 24 °C 23.5 °C 1009.4 hPa Calm   8 km/h 97 % 0 mm
06:48 24.1 °C 23.6 °C 1009.4 hPa SSW 3.2 km/h 8 km/h 97 % 0 mm
06:53 24.1 °C 23.6 °C 1009.4 hPa SSE 3.2 km/h 8 km/h 97 % 0 mm
06:58 24.2 °C 23.7 °C 1009 hPa South 4.8 km/h 8 km/h 97 % 0 mm
07:03 24.2 °C 23.7 °C 1009 hPa SW 4.8 km/h 12.9 km/h 97 % 0 mm
07:09 24.2 °C 23.7 °C 1009.4 hPa SSE 8 km/h 12.9 km/h 97 % 0 mm
07:14 24.2 °C 23.5 °C 1009.4 hPa South 4.8 km/h 12.9 km/h 96 % 0 mm
07:19 24.2 °C 23.7 °C 1009.4 hPa SSE 3.2 km/h 11.3 km/h 97 % 0 mm
07:24 24.3 °C 23.8 °C 1009.4 hPa South 3.2 km/h 11.3 km/h 97 % 0 mm
07:29 24.3 °C 23.8 °C 1009.4 hPa SSE 3.2 km/h 8 km/h 97 % 0 mm
07:34 24.3 °C 23.8 °C 1009 hPa Calm   8 km/h 97 % 0 mm
07:39 24.3 °C 23.8 °C 1009 hPa South 1.6 km/h 8 km/h 97 % 0 mm
07:44 24.4 °C 23.9 °C 1009 hPa SSE 3.2 km/h 8 km/h 97 % 0 mm
07:49 24.4 °C 23.9 °C 1009 hPa SE 1.6 km/h 6.4 km/h 97 % 0 mm
07:54 24.5 °C 23.8 °C 1009 hPa South 3.2 km/h 8 km/h 96 % 0 mm
07:59 24.5 °C 24 °C 1009 hPa South 6.4 km/h 8 km/h 97 % 0 mm
08:04 24.6 °C 23.9 °C 1009 hPa South 3.2 km/h 9.7 km/h 96 % 0 mm
08:09 24.7 °C 24 °C 1009.4 hPa SE 4.8 km/h 9.7 km/h 96 % 0 mm
08:14 24.8 °C 24.1 °C 1009.4 hPa SSE 4.8 km/h 9.7 km/h 96 % 0 mm
08:19 24.9 °C 24.2 °C 1009 hPa SSE 4.8 km/h 8 km/h 96 % 0 mm
08:24 24.9 °C 24.2 °C 1009 hPa SSE 4.8 km/h 11.3 km/h 96 % 0 mm
08:29 25 °C 24.3 °C 1009 hPa SSE 3.2 km/h 11.3 km/h 96 % 0 mm
08:34 25.1 °C 24.4 °C 1008.7 hPa South 3.2 km/h 12.9 km/h 96 % 0 mm
08:39 25.2 °C 24.3 °C 1008.7 hPa South 3.2 km/h 12.9 km/h 95 % 0 mm
08:44 25.3 °C 24.4 °C 1008.7 hPa SSE 4.8 km/h 12.9 km/h 95 % 0 mm
08:49 25.3 °C 24.4 °C 1008.7 hPa SW 3.2 km/h 14.5 km/h 95 % 0 mm
08:54 25.4 °C 24.4 °C 1008.7 hPa SSW 6.4 km/h 14.5 km/h 94 % 0 mm
08:59 25.5 °C 24.5 °C 1008.7 hPa SSE 4.8 km/h 14.5 km/h 94 % 0 mm
09:04 25.6 °C 24.6 °C 1008.7 hPa SSW 9.7 km/h 14.5 km/h 94 % 0 mm
09:09 25.7 °C 24.7 °C 1008.4 hPa South 6.4 km/h 16.1 km/h 94 % 0 mm
09:15 25.8 °C 24.6 °C 1008.4 hPa SSW 12.9 km/h 16.1 km/h 93 % 0 mm
09:20 26 °C 24.8 °C 1008.4 hPa South 4.8 km/h 16.1 km/h 93 % 0 mm
09:25 26.3 °C 24.9 °C 1008.4 hPa SSW 12.9 km/h 19.3 km/h 92 % 0 mm
09:30 26.4 °C 24.8 °C 1008.4 hPa South 6.4 km/h 19.3 km/h 91 % 0 mm
09:35 26.7 °C 24.7 °C 1008.4 hPa South 12.9 km/h 24.1 km/h 89 % 0 mm
09:40 26.8 °C 24.6 °C 1008.4 hPa SSE 9.7 km/h 24.1 km/h 88 % 0 mm
09:42 26.9 °C 24.7 °C 1008.4 hPa SSE 9.7 km/h 24.1 km/h 88 % 0 mm
09:47 27 °C 24.8 °C 1008.4 hPa SW 9.7 km/h 24.1 km/h 88 % 0 mm
09:52 27.2 °C 24.7 °C 1008.4 hPa SSW 9.7 km/h 22.5 km/h 86 % 0 mm
09:57 27.2 °C 24.7 °C 1008 hPa SSE 9.7 km/h 24.1 km/h 86 % 0 mm
10:02 27.4 °C 24.8 °C 1008 hPa SSE 8 km/h 24.1 km/h 86 % 0 mm
10:07 27.5 °C 24.6 °C 1008 hPa SW 8 km/h 25.7 km/h 84 % 0 mm
10:12 27.4 °C 24.5 °C 1007.7 hPa SSW 12.9 km/h 25.7 km/h 84 % 0 mm
10:17 27.4 °C 24.7 °C 1008 hPa SSW 9.7 km/h 25.7 km/h 85 % 0 mm
10:22 27.6 °C 24.4 °C 1008 hPa SSW 12.9 km/h 22.5 km/h 83 % 0 mm
10:27 27.6 °C 24.4 °C 1007.7 hPa SW 6.4 km/h 22.5 km/h 83 % 0 mm
10:32 27.8 °C 24.6 °C 1007.7 hPa SW 24.1 km/h 24.1 km/h 83 % 0 mm
10:37 28.1 °C 24.5 °C 1008 hPa South 16.1 km/h 27.4 km/h 81 % 0 mm
10:42 28.3 °C 24.7 °C 1007.7 hPa South 12.9 km/h 29 km/h 81 % 0 mm
10:47 28.7 °C 25.1 °C 1008 hPa South 6.4 km/h 30.6 km/h 81 % 0 mm
10:52 29.1 °C 24.9 °C 1008 hPa SSW 9.7 km/h 30.6 km/h 78 % 0 mm
10:57 29.2 °C 24.7 °C 1007.7 hPa WSW 9.7 km/h 30.6 km/h 77 % 0 mm
11:02 29.2 °C 24.5 °C 1007.7 hPa SSE 11.3 km/h 25.7 km/h 76 % 0 mm
11:07 29.1 °C 24.4 °C 1008 hPa SSW 12.9 km/h 22.5 km/h 76 % 0 mm
11:12 29.1 °C 24.7 °C 1008 hPa SSW 4.8 km/h 22.5 km/h 77 % 0 mm
11:17 29.2 °C 24.5 °C 1008 hPa SW 17.7 km/h 22.5 km/h 76 % 0 mm
11:22 29.2 °C 24.1 °C 1008 hPa SW 11.3 km/h 29 km/h 74 % 0 mm
11:27 29.2 °C 24.3 °C 1008 hPa SW 17.7 km/h 30.6 km/h 75 % 0 mm
11:32 28.9 °C 23.8 °C 1008 hPa SSW 11.3 km/h 30.6 km/h 74 % 0 mm
11:37 28.8 °C 23.9 °C 1008 hPa South 17.7 km/h 30.6 km/h 75 % 0 mm
11:42 28.7 °C 24 °C 1008 hPa SSW 9.7 km/h 29 km/h 76 % 0 mm
11:47 28.7 °C 24 °C 1007.7 hPa SW 12.9 km/h 27.4 km/h 76 % 0 mm
11:52 29 °C 24.3 °C 1007.7 hPa SSW 8 km/h 27.4 km/h 76 % 0 mm
11:57 29.3 °C 24.2 °C 1007.3 hPa SSW 19.3 km/h 27.4 km/h 74 % 0 mm
12:02 29.5 °C 24.8 °C 1007.3 hPa South 11.3 km/h 27.4 km/h 76 % 0 mm
12:07 29.7 °C 24.6 °C 1007.3 hPa SW 12.9 km/h 27.4 km/h 74 % 0 mm
12:13 29.9 °C 24.8 °C 1007.3 hPa South 6.4 km/h 27.4 km/h 74 % 0 mm
12:18 29.9 °C 24.5 °C 1007.3 hPa SSW 9.7 km/h 25.7 km/h 73 % 0 mm
12:21 29.7 °C 24.3 °C 1007.3 hPa South 8 km/h 25.7 km/h 73 % 0 mm
12:26 29.5 °C 24.1 °C 1007.3 hPa SW 14.5 km/h 30.6 km/h 73 % 0 mm
12:31 29.6 °C 24.5 °C 1007.3 hPa SSW 4.8 km/h 30.6 km/h 74 % 0 mm
12:36 29.9 °C 25 °C 1007.3 hPa SSE 9.7 km/h 30.6 km/h 75 % 0 mm
12:41 30.1 °C 24.7 °C 1007.3 hPa South 27.4 km/h 27.4 km/h 73 % 0 mm
12:46 30 °C 24.4 °C 1007.3 hPa South 12.9 km/h 27.4 km/h 72 % 0 mm
12:51 29.9 °C 24.5 °C 1007 hPa SW 11.3 km/h 27.4 km/h 73 % 0 mm
12:56 30.1 °C 24.7 °C 1007.3 hPa SSE 9.7 km/h 29 km/h 73 % 0 mm
13:01 30.1 °C 24.5 °C 1007 hPa SSW 16.1 km/h 29 km/h 72 % 0 mm
13:06 29.8 °C 24.2 °C 1007 hPa SSW 9.7 km/h 29 km/h 72 % 0 mm
13:11 29.6 °C 24.2 °C 1007 hPa SSW 24.1 km/h 29 km/h 73 % 0 mm
13:16 29.5 °C 24.1 °C 1007 hPa SE 8 km/h 29 km/h 73 % 0 mm
13:21 29.6 °C 24.5 °C 1007 hPa SSW 4.8 km/h 30.6 km/h 74 % 0 mm
13:26 30.1 °C 24.5 °C 1006.7 hPa SE 14.5 km/h 30.6 km/h 72 % 0 mm
13:28 30.3 °C 24.4 °C 1007 hPa SSW 27.4 km/h 30.6 km/h 71 % 0 mm
13:31 30.3 °C 24.4 °C 1006.7 hPa SW 16.1 km/h 30.6 km/h 71 % 0 mm
13:36 30.5 °C 24.6 °C 1006.7 hPa South 9.7 km/h 27.4 km/h 71 % 0 mm
13:41 30.5 °C 24.4 °C 1006.7 hPa SSW 9.7 km/h 27.4 km/h 70 % 0 mm
13:46 30.3 °C 24.2 °C 1006.7 hPa South 16.1 km/h 27.4 km/h 70 % 0 mm
13:51 30.1 °C 24.5 °C 1006.7 hPa SSW 6.4 km/h 24.1 km/h 72 % 0 mm
13:56 30.2 °C 24.6 °C 1006.7 hPa SSW 17.7 km/h 29 km/h 72 % 0 mm
14:01 29.9 °C 24.5 °C 1006.7 hPa SSW 8 km/h 29 km/h 73 % 0 mm
14:06 29.8 °C 24.7 °C 1006.7 hPa SSW 4.8 km/h 29 km/h 74 % 0 mm
14:11 30 °C 24.6 °C 1006.7 hPa SSW 6.4 km/h 29 km/h 73 % 0 mm
14:16 30.1 °C 24.5 °C 1006.7 hPa SSW 9.7 km/h 27.4 km/h 72 % 0 mm
14:21 29.8 °C 24.2 °C 1007 hPa South 12.9 km/h 19.3 km/h 72 % 0 mm
14:26 29.6 °C 24.5 °C 1006.7 hPa South 8 km/h 19.3 km/h 74 % 0 mm
14:31 29.4 °C 24.3 °C 1006.7 hPa SSW 9.7 km/h 25.7 km/h 74 % 0 mm
14:36 29.4 °C 24.5 °C 1006.7 hPa South 8 km/h 25.7 km/h 75 % 0 mm
14:41 29.4 °C 24.5 °C 1006.3 hPa SSW 9.7 km/h 25.7 km/h 75 % 0 mm
14:46 29.2 °C 24.7 °C 1005.6 hPa SE 17.7 km/h 19.3 km/h 77 % 0 mm
14:50 28.7 °C 24.9 °C 1005.6 hPa South 9.7 km/h 19.3 km/h 80 % 0 mm
14:52 28.6 °C 25.2 °C 1005.6 hPa WNW 3.2 km/h 19.3 km/h 82 % 0 mm
14:57 28.2 °C 25.4 °C 1006 hPa NW 4.8 km/h 19.3 km/h 85 % 0 mm
15:02 28.2 °C 25.8 °C 1005.6 hPa South 9.7 km/h 19.3 km/h 87 % 0 mm
15:07 27.9 °C 25.5 °C 1005.6 hPa South 12.9 km/h 19.3 km/h 87 % 0 mm
15:12 27.9 °C 25.1 °C 1005.6 hPa SW 6.4 km/h 17.7 km/h 85 % 0 mm
15:17 28.2 °C 25.2 °C 1005.6 hPa WNW 6.4 km/h 17.7 km/h 84 % 0 mm
15:22 28.5 °C 25.3 °C 1005.6 hPa SSE 16.1 km/h 17.7 km/h 83 % 0 mm
15:27 29.1 °C 25.5 °C 1005.3 hPa SSW 11.3 km/h 20.9 km/h 81 % 0 mm
15:32 29.4 °C 25.6 °C 1005.3 hPa South 11.3 km/h 20.9 km/h 80 % 0 mm
15:37 29.3 °C 24.8 °C 1005.3 hPa SSW 12.9 km/h 29 km/h 77 % 0 mm
15:42 29.1 °C 24.7 °C 1005.3 hPa SSW 8 km/h 29 km/h 77 % 0 mm
15:47 29.2 °C 25 °C 1005.3 hPa South 14.5 km/h 29 km/h 78 % 0 mm
15:52 29.3 °C 24.8 °C 1005.3 hPa ESE 14.5 km/h 24.1 km/h 77 % 0 mm
15:57 29.5 °C 24.6 °C 1005.3 hPa SSW 11.3 km/h 25.7 km/h 75 % 0 mm
16:02 29.8 °C 25.1 °C 1005 hPa SE 9.7 km/h 29 km/h 76 % 0 mm
16:07 30 °C 24.6 °C 1005 hPa South 14.5 km/h 29 km/h 73 % 0 mm
16:12 29.9 °C 24.8 °C 1004.6 hPa West 11.3 km/h 29 km/h 74 % 0 mm
16:17 30 °C 24.9 °C 1004.6 hPa SSW 24.1 km/h 32.2 km/h 74 % 0 mm
16:22 29.9 °C 24.8 °C 1004.3 hPa SSW 9.7 km/h 32.2 km/h 74 % 0 mm
16:27 30.1 °C 24.7 °C 1004.3 hPa SSE 6.4 km/h 32.2 km/h 73 % 0 mm
16:32 29.9 °C 24.8 °C 1004.3 hPa SSW 6.4 km/h 27.4 km/h 74 % 0 mm
16:37 30.1 °C 24.7 °C 1004.3 hPa South 8 km/h 25.7 km/h 73 % 0 mm
16:42 30.1 °C 24.5 °C 1004.3 hPa South 11.3 km/h 25.7 km/h 72 % 0 mm
16:43 30.1 °C 24.7 °C 1004.3 hPa SW 11.3 km/h 25.7 km/h 73 % 0 mm
16:48 29.9 °C 24.5 °C 1004.3 hPa South 14.5 km/h 24.1 km/h 73 % 0 mm
16:53 29.9 °C 24.5 °C 1004.3 hPa South 12.9 km/h 24.1 km/h 73 % 0 mm
16:58 30.1 °C 25 °C 1003.9 hPa SSW 9.7 km/h 24.1 km/h 74 % 0 mm
17:03 30.1 °C 24.5 °C 1003.9 hPa SW 14.5 km/h 22.5 km/h 72 % 0 mm
17:08 29.9 °C 24.5 °C 1003.9 hPa South 11.3 km/h 29 km/h 73 % 0 mm
17:11 29.9 °C 24.8 °C 1003.9 hPa SSW 9.7 km/h 29 km/h 74 % 0 mm
17:16 29.8 °C 24.7 °C 1003.9 hPa SSE 6.4 km/h 29 km/h 74 % 0 mm
17:17 29.8 °C 24.7 °C 1003.9 hPa ESE 14.5 km/h 29 km/h 74 % 0 mm
17:22 29.9 °C 24.8 °C 1004.3 hPa West 9.7 km/h 27.4 km/h 74 % 0 mm
17:27 29.9 °C 24.8 °C 1004.3 hPa SW 12.9 km/h 27.4 km/h 74 % 0 mm
17:32 29.8 °C 24.7 °C 1004.3 hPa SSE 6.4 km/h 27.4 km/h 74 % 0 mm
17:37 29.7 °C 24.8 °C 1003.9 hPa SE 14.5 km/h 27.4 km/h 75 % 0 mm
17:42 29.5 °C 24.6 °C 1003.9 hPa SSW 16.1 km/h 24.1 km/h 75 % 0 mm
17:47 29.4 °C 24.7 °C 1003.9 hPa South 6.4 km/h 24.1 km/h 76 % 0 mm
17:52 29.5 °C 24.6 °C 1003.9 hPa South 17.7 km/h 22.5 km/h 75 % 0 mm
17:57 29.5 °C 24.6 °C 1003.9 hPa SE 12.9 km/h 25.7 km/h 75 % 0 mm
18:02 29.6 °C 24.7 °C 1003.9 hPa South 14.5 km/h 25.7 km/h 75 % 0 mm
18:07 29.6 °C 24.7 °C 1003.9 hPa SW 12.9 km/h 25.7 km/h 75 % 0 mm
18:12 29.6 °C 24.7 °C 1003.9 hPa SE 4.8 km/h 22.5 km/h 75 % 0 mm
18:17 29.5 °C 24.8 °C 1003.9 hPa SSE 3.2 km/h 22.5 km/h 76 % 0 mm
18:22 29.4 °C 24.7 °C 1004.3 hPa WSW 3.2 km/h 22.5 km/h 76 % 0 mm
18:23 29.4 °C 24.7 °C 1004.3 hPa SW 6.4 km/h 22.5 km/h 76 % 0 mm
18:28 29.3 °C 24.6 °C 1004.3 hPa SSW 6.4 km/h 20.9 km/h 76 % 0 mm
18:33 29.1 °C 24.4 °C 1004.3 hPa South 6.4 km/h 17.7 km/h 76 % 0 mm
18:38 29 °C 24.6 °C 1004.3 hPa SW 4.8 km/h 17.7 km/h 77 % 0 mm
18:43 29 °C 24.6 °C 1003.9 hPa SW 11.3 km/h 17.7 km/h 77 % 0 mm
18:48 29.1 °C 24.7 °C 1003.9 hPa WSW 6.4 km/h 22.5 km/h 77 % 0 mm
18:53 29 °C 24.6 °C 1003.9 hPa South 11.3 km/h 22.5 km/h 77 % 0 mm
18:58 28.9 °C 24.7 °C 1004.3 hPa South 11.3 km/h 25.7 km/h 78 % 0 mm
19:03 28.8 °C 24.6 °C 1004.3 hPa SW 11.3 km/h 25.7 km/h 78 % 0 mm
19:08 28.8 °C 24.6 °C 1003.9 hPa SSE 9.7 km/h 25.7 km/h 78 % 0 mm
19:11 28.7 °C 24.5 °C 1003.9 hPa SSW 9.7 km/h 19.3 km/h 78 % 0 mm
19:16 28.7 °C 24.5 °C 1004.6 hPa Calm   19.3 km/h 78 % 0 mm
19:21 28.2 °C 21.2 °C 1005.6 hPa NNW 19.3 km/h 24.1 km/h 66 % 0 mm
19:26 26.5 °C 19.6 °C 1005.6 hPa NW 8 km/h 30.6 km/h 66 % 0 mm
19:31 25.6 °C 19.5 °C 1006.3 hPa NW 14.5 km/h 30.6 km/h 69 % 0 mm
19:36 24.9 °C 19.9 °C 1006.7 hPa NNE 14.5 km/h 30.6 km/h 74 % 0 mm
19:41 23.4 °C 19.3 °C 1006.7 hPa West 14.5 km/h 35.4 km/h 78 % 0.25 mm
19:46 22.2 °C 19.6 °C 1006.7 hPa NNW 11.3 km/h 35.4 km/h 85 % 0.25 mm
19:51 21.5 °C 19.6 °C 1007 hPa NNW 6.4 km/h 35.4 km/h 89 % 0.51 mm
19:56 21.2 °C 19.7 °C 1007.3 hPa WNW 11.3 km/h 35.4 km/h 91 % 1.02 mm
20:01 21.1 °C 19.6 °C 1007.7 hPa WNW 8 km/h 17.7 km/h 91 % 1.27 mm
20:06 21 °C 19.6 °C 1008 hPa NW 9.7 km/h 20.9 km/h 92 % 1.27 mm
20:11 20.9 °C 19.6 °C 1007.7 hPa NNW 4.8 km/h 20.9 km/h 92 % 3.3 mm
20:16 20.7 °C 19.5 °C 1007.7 hPa NW 6.4 km/h 25.7 km/h 93 % 5.33 mm
20:21 20.4 °C 19.4 °C 1007.3 hPa NNW 8 km/h 25.7 km/h 94 % 6.35 mm
20:26 20.3 °C 19.5 °C 1007.7 hPa WNW 8 km/h 25.7 km/h 95 % 6.35 mm
20:31 20.2 °C 19.4 °C 1008.4 hPa WNW 6.4 km/h 24.1 km/h 95 % 6.35 mm
20:36 20.2 °C 19.4 °C 1008 hPa WNW 6.4 km/h 24.1 km/h 95 % 6.35 mm
20:41 20.1 °C 19.3 °C 1008.4 hPa NNE 14.5 km/h 20.9 km/h 95 % 6.1 mm
20:46 20.1 °C 19.3 °C 1008.4 hPa NNW 14.5 km/h 20.9 km/h 95 % 6.1 mm
20:51 20.2 °C 19.4 °C 1008.4 hPa NW 12.9 km/h 20.9 km/h 95 % 5.84 mm
20:56 20.2 °C 19.4 °C 1008.4 hPa SW 1.6 km/h 20.9 km/h 95 % 5.33 mm
21:01 20.2 °C 19.4 °C 1009 hPa NNW 6.4 km/h 20.9 km/h 95 % 5.08 mm
21:06 20.2 °C 19.4 °C 1009.7 hPa North 3.2 km/h 19.3 km/h 95 % 5.08 mm
21:11 20.2 °C 19.4 °C 1010 hPa Calm   16.1 km/h 95 % 3.05 mm
21:16 20.2 °C 19.4 °C 1010 hPa NNW 1.6 km/h 8 km/h 95 % 0.76 mm
21:21 20.3 °C 19.5 °C 1010 hPa NNE 3.2 km/h 9.7 km/h 95 % 0 mm
21:26 20.3 °C 19.5 °C 1009.7 hPa NW 3.2 km/h 11.3 km/h 95 % 0 mm
21:31 20.3 °C 19.5 °C 1009.7 hPa WNW 1.6 km/h 19.3 km/h 95 % 0 mm
21:36 20.4 °C 19.4 °C 1010 hPa West 9.7 km/h 19.3 km/h 94 % 0 mm
21:42 20.4 °C 19.2 °C 1010.4 hPa NNE 6.4 km/h 19.3 km/h 93 % 0 mm
21:47 20.5 °C 19.3 °C 1010.4 hPa WNW 4.8 km/h 17.7 km/h 93 % 0 mm
21:52 20.6 °C 19.4 °C 1011.1 hPa NNW 9.7 km/h 14.5 km/h 93 % 0 mm
21:57 20.6 °C 19.3 °C 1011.4 hPa NW 3.2 km/h 12.9 km/h 92 % 0 mm
22:02 20.7 °C 19.2 °C 1011.4 hPa NW 3.2 km/h 12.9 km/h 91 % 0 mm
22:07 20.7 °C 19 °C 1011.4 hPa NW 4.8 km/h 19.3 km/h 90 % 0 mm
22:12 20.8 °C 19.1 °C 1011.7 hPa NW 3.2 km/h 19.3 km/h 90 % 0 mm
22:17 20.8 °C 18.9 °C 1011.7 hPa NNW 8 km/h 19.3 km/h 89 % 0 mm
22:22 20.8 °C 18.7 °C 1011.7 hPa NW 6.4 km/h 14.5 km/h 88 % 0 mm
22:27 20.7 °C 18.3 °C 1011.7 hPa North 12.9 km/h 22.5 km/h 86 % 0 mm
22:32 20.7 °C 18.1 °C 1012.1 hPa NW 22.5 km/h 30.6 km/h 85 % 0 mm
22:37 20.6 °C 17.4 °C 1012.4 hPa NNE 19.3 km/h 30.6 km/h 82 % 0 mm
22:42 20.3 °C 16.5 °C 1012.4 hPa NNW 16.1 km/h 30.6 km/h 79 % 0 mm
22:47 20.1 °C 15.1 °C 1012.4 hPa NNW 20.9 km/h 25.7 km/h 73 % 0 mm
22:52 19.8 °C 14.8 °C 1012.4 hPa NNW 14.5 km/h 29 km/h 73 % 0 mm
22:57 19.6 °C 14.8 °C 1012.4 hPa NW 17.7 km/h 29 km/h 74 % 0 mm
23:02 19.3 °C 14.5 °C 1012.8 hPa NNE 20.9 km/h 29 km/h 74 % 0 mm
23:07 19.2 °C 14 °C 1012.4 hPa WNW 12.9 km/h 25.7 km/h 72 % 0 mm
23:12 19.1 °C 13.5 °C 1012.4 hPa NW 16.1 km/h 30.6 km/h 70 % 0 mm
23:17 19 °C 13.2 °C 1012.8 hPa North 16.1 km/h 32.2 km/h 69 % 0 mm
23:22 18.8 °C 13 °C 1012.4 hPa NW 19.3 km/h 32.2 km/h 69 % 0 mm
23:27 18.6 °C 13 °C 1012.4 hPa NW 12.9 km/h 35.4 km/h 70 % 0 mm
23:32 18.3 °C 12.7 °C 1012.4 hPa WNW 25.7 km/h 35.4 km/h 70 % 0 mm
23:37 18.2 °C 12.9 °C 1012.4 hPa NNW 9.7 km/h 35.4 km/h 71 % 0 mm
23:42 18.1 °C 12.8 °C 1012.4 hPa NW 11.3 km/h 33.8 km/h 71 % 0 mm
23:52 17.9 °C 12.8 °C 1012.1 hPa NW 14.5 km/h 30.6 km/h 72 % 0 mm
23:57 17.8 °C 12.9 °C 1012.1 hPa North 11.3 km/h 24.1 km/h 73 % 0 mm
Spring, Texas: Villages of Bridgestone
Compliments of Weather Underground - 3 mb

Script developed by  Jim McMurry - jmcmurry@mwt.net Adapted for the template by  Wim van der Kuil - Leuven-Template.eu

You find our weather info also at:

UK Metoffice

WeatherCloud

Weather Underground

Mid-South Weather Network

AWEKAS

Citizen Weather Observer Program (CWOP)

HAMweather, WeatherForYou, PWS Weather

Equipment we use:

Weather-station
Davis Vantage Vue

Weather-program
Meteohub

Weather-server
Debian 7.9 x86 (Guest)

Provider
DreamHost

Davis Vantage Vue

Meteohub

Debian 7.9 x86 (Guest)

DreamHost